Time;durP1;ratioP1;P1;durP2;ratioP2;P2;SDS_P1;SDS_P2;PMS_P1;PMS_P2;Temp;Humidity;BMP_temperature;BMP_pressure;BME280_temperature;BME280_humidity;BME280_pressure;Samples;Min_cycle;Max_cycle;Signal;HPM_P1;HPM_P2
2023/07/16 00:02:07;;;;;;;0.30;0.30;;;28.80;59.70;;;29.68;42.50;94462.97;5058383;28;20209;-42
2023/07/16 00:04:35;;;;;;;0.30;0.30;;;28.70;59.80;;;29.67;41.93;94455.97;5057258;28;20198;-41
2023/07/16 00:07:02;;;;;;;0.20;0.20;;;28.60;59.90;;;29.63;42.06;94466.63;5058021;28;20664;-41
2023/07/16 00:09:29;;;;;;;0.40;0.40;;;28.60;59.90;;;29.60;42.62;94463.78;5057023;28;20195;-41
2023/07/16 00:11:57;;;;;;;0.30;0.30;;;28.60;59.90;;;29.58;42.21;94466.00;5057100;28;20284;-41
2023/07/16 00:14:24;;;;;;;0.30;0.30;;;28.60;60.10;;;29.55;42.82;94459.34;5057956;28;20277;-41
2023/07/16 00:16:51;;;;;;;0.25;0.25;;;28.50;60.20;;;29.54;42.82;94463.97;5057306;28;20198;-42
2023/07/16 00:19:18;;;;;;;0.30;0.30;;;28.50;60.10;;;29.51;43.11;94466.53;5057587;28;20323;-43
2023/07/16 00:21:48;;;;;;;0.30;0.30;;;28.50;60.30;;;29.49;43.13;94466.88;5057810;28;20197;-41
2023/07/16 00:24:15;;;;;;;0.30;0.30;;;28.50;60.30;;;29.48;42.57;94476.09;5058037;28;20289;-46
2023/07/16 00:26:42;;;;;;;0.30;0.30;;;28.50;60.60;;;29.48;42.53;94480.69;5057625;28;20641;-45
2023/07/16 00:29:10;;;;;;;0.30;0.30;;;28.50;60.60;;;29.44;43.22;94477.81;5057956;28;20259;-42
2023/07/16 00:31:37;;;;;;;0.28;0.28;;;28.40;60.50;;;29.44;42.79;94482.44;5057418;28;20613;-42
2023/07/16 00:34:04;;;;;;;0.30;0.30;;;28.40;60.60;;;29.42;43.34;94479.25;5057615;28;20194;-43
2023/07/16 00:36:31;;;;;;;0.30;0.30;;;28.40;60.60;;;29.39;43.05;94478.81;5057887;28;20285;-41
2023/07/16 00:38:59;;;;;;;0.20;0.20;;;28.40;60.80;;;29.37;43.71;94472.94;5058280;28;20202;-41
2023/07/16 00:41:26;;;;;;;0.30;0.30;;;28.40;60.80;;;29.37;43.35;94477.56;5055945;28;20220;-40
2023/07/16 00:43:54;;;;;;;0.30;0.30;;;28.40;61.00;;;29.34;43.33;94476.28;5073121;28;20319;-44
2023/07/16 00:46:21;;;;;;;0.30;0.30;;;28.40;61.00;;;29.33;43.58;94473.91;5057364;28;20251;-39
2023/07/16 00:48:49;;;;;;;0.30;0.30;;;28.30;60.90;;;29.31;44.13;94485.03;5056376;28;20267;-40
2023/07/16 00:51:17;;;;;;;0.30;0.30;;;28.30;61.10;;;29.29;43.58;94478.34;5056245;28;20226;-44
2023/07/16 00:53:45;;;;;;;0.30;0.30;;;28.40;61.30;;;29.28;44.01;94477.53;5039761;28;20262;-40
2023/07/16 00:56:20;;;;;;;0.25;0.25;;;28.30;61.00;;;29.24;43.95;94469.28;5056297;28;20644;-41
2023/07/16 00:58:47;;;;;;;0.30;0.30;;;28.30;61.30;;;29.21;44.14;94472.63;5056208;28;20197;-42
2023/07/16 01:01:14;;;;;;;0.20;0.20;;;28.30;61.20;;;29.19;44.16;94476.78;5056993;28;20201;-41
2023/07/16 01:03:41;;;;;;;0.20;0.20;;;28.20;61.20;;;29.17;43.84;94482.47;5057018;28;20589;-41
2023/07/16 01:06:25;;;;;;;0.30;0.30;;;28.20;61.40;;;29.16;43.84;94480.91;5056961;28;20205;-42
2023/07/16 01:08:58;;;;;;;0.30;0.30;;;28.20;61.50;;;29.14;44.32;94474.22;5056023;28;20211;-40
2023/07/16 01:11:27;;;;;;;0.30;0.30;;;28.20;61.70;;;29.13;44.29;94480.75;5056116;28;20223;-41
2023/07/16 01:13:56;;;;;;;0.30;0.30;;;28.20;61.80;;;29.12;44.78;94477.25;5055908;28;20224;-40
2023/07/16 01:16:24;;;;;;;0.30;0.30;;;28.20;61.90;;;29.11;44.28;94470.25;5055880;28;20199;-41
2023/07/16 01:18:52;;;;;;;0.30;0.30;;;28.10;61.80;;;29.09;44.60;94469.81;5055681;28;20319;-41
2023/07/16 01:21:21;;;;;;;0.20;0.20;;;28.10;61.70;;;29.06;44.46;94471.25;5056545;28;20204;-40
2023/07/16 01:24:34;;;;;;;0.30;0.30;;;28.10;61.80;;;29.03;44.55;94477.28;5055783;28;20595;-42
2023/07/16 01:27:19;;;;;;;0.28;0.28;;;28.10;62.00;;;28.98;44.79;94479.34;5047449;28;20220;-42
2023/07/16 01:30:03;;;;;;;0.30;0.30;;;28.10;61.80;;;28.96;44.93;94486.97;5056679;28;20258;-46
2023/07/16 01:32:34;;;;;;;0.30;0.30;;;28.10;62.10;;;28.94;45.24;94491.91;5056736;28;20249;-42
2023/07/16 01:35:05;;;;;;;0.20;0.20;;;28.00;62.20;;;28.93;45.40;94480.31;5056426;28;20528;-40
2023/07/16 01:37:33;;;;;;;0.30;0.30;;;28.00;62.10;;;28.90;44.86;94481.72;5056344;28;20701;-40
2023/07/16 01:40:01;;;;;;;0.30;0.30;;;28.00;62.20;;;28.89;45.15;94482.06;5071873;28;20259;-40
2023/07/16 01:42:28;;;;;;;0.30;0.30;;;28.00;62.10;;;28.87;44.81;94489.69;5056288;28;20195;-42
2023/07/16 01:44:55;;;;;;;0.20;0.20;;;28.00;62.20;;;28.85;45.08;94491.91;5055273;28;20291;-41
2023/07/16 01:47:48;;;;;;;0.30;0.30;;;28.00;63.20;;;28.82;45.59;94497.94;5055239;28;20216;-40
2023/07/16 01:50:16;;;;;;;0.20;0.20;;;27.90;62.30;;;28.77;45.62;94498.09;5056284;28;20529;-42
2023/07/16 01:52:43;;;;;;;0.30;0.30;;;27.90;62.20;;;28.72;45.40;94496.34;5054199;28;20300;-41
2023/07/16 01:55:10;;;;;;;0.30;0.30;;;27.90;62.40;;;28.68;45.65;94501.59;5056340;28;20230;-40
2023/07/16 01:57:37;;;;;;;0.30;0.30;;;27.80;62.40;;;28.68;45.38;94506.97;5056002;28;20235;-41
2023/07/16 02:00:05;;;;;;;0.40;0.40;;;27.80;62.60;;;28.66;45.57;94502.97;5054990;28;20187;-42
2023/07/16 02:02:45;;;;;;;0.28;0.28;;;27.80;62.60;;;28.63;46.03;94501.72;5055793;28;20303;-39
2023/07/16 02:05:15;;;;;;;0.30;0.30;;;27.80;62.60;;;28.62;45.55;94507.44;5056131;28;20520;-39
2023/07/16 02:07:42;;;;;;;0.43;0.43;;;27.70;62.60;;;28.56;45.68;94506.78;5054829;28;20210;-41
2023/07/16 02:10:09;;;;;;;0.30;0.30;;;27.70;62.70;;;28.55;45.64;94510.59;5054652;28;20221;-40
2023/07/16 02:12:36;;;;;;;0.30;0.30;;;27.70;62.70;;;28.52;45.69;94512.03;5055967;28;20264;-40
2023/07/16 02:15:04;;;;;;;0.20;0.20;;;27.70;62.80;;;28.53;46.20;94507.44;5055403;28;20623;-41
2023/07/16 02:17:35;;;;;;;0.30;0.30;;;27.60;62.80;;;28.51;45.81;94510.44;5054682;28;20635;-42
2023/07/16 02:20:06;;;;;;;0.30;0.30;;;27.60;62.90;;;28.49;46.09;94509.16;5055246;28;20577;-42
2023/07/16 02:22:35;;;;;;;0.30;0.30;;;27.70;63.00;;;28.48;46.37;94518.34;5055724;28;20182;-43
2023/07/16 02:25:03;;;;;;;0.20;0.20;;;27.60;63.10;;;28.47;45.98;94511.41;5056068;28;20271;-42
2023/07/16 02:27:30;;;;;;;0.20;0.20;;;27.60;63.20;;;28.46;46.76;94513.28;5055445;28;20627;-42
2023/07/16 02:29:57;;;;;;;0.30;0.30;;;27.60;63.30;;;28.45;46.72;94517.09;5054468;28;20421;-46
2023/07/16 02:32:24;;;;;;;0.43;0.43;;;27.60;63.20;;;28.43;46.85;94516.63;5055146;28;20223;-42
2023/07/16 02:34:52;;;;;;;0.30;0.30;;;27.60;63.40;;;28.42;46.65;94523.91;5055366;28;20215;-42
2023/07/16 02:37:19;;;;;;;0.20;0.20;;;27.60;63.40;;;28.42;46.64;94523.91;5054315;28;20204;-43
2023/07/16 02:39:47;;;;;;;0.30;0.30;;;27.60;63.50;;;28.42;46.57;94525.81;5055279;28;20191;-43
2023/07/16 02:42:15;;;;;;;0.32;0.32;;;27.60;63.50;;;28.38;46.56;94517.56;5055089;28;20229;-43
2023/07/16 02:44:44;;;;;;;0.40;0.40;;;27.60;63.50;;;28.36;46.50;94519.78;5055443;28;20256;-42
2023/07/16 02:47:12;;;;;;;0.30;0.30;;;27.50;63.50;;;28.37;46.89;94523.25;5055426;28;20629;-42
2023/07/16 02:49:39;;;;;;;0.30;0.30;;;27.50;63.60;;;28.36;46.98;94521.69;5054164;28;20204;-42
2023/07/16 02:52:07;;;;;;;0.30;0.30;;;27.50;63.70;;;28.34;46.81;94537.38;5053929;28;20224;-41
2023/07/16 02:54:37;;;;;;;0.30;0.30;;;27.50;63.60;;;28.30;47.38;94539.91;5055010;28;20209;-42
2023/07/16 02:57:05;;;;;;;0.20;0.20;;;27.50;63.90;;;28.27;46.85;94549.44;5054060;28;20214;-42
2023/07/16 02:59:33;;;;;;;0.30;0.30;;;27.50;63.80;;;28.25;47.06;94613.66;5055042;28;20298;-43
2023/07/16 03:02:00;;;;;;;0.30;0.30;;;27.50;63.90;;;28.22;47.39;94603.53;5053840;28;20203;-42
2023/07/16 03:04:27;;;;;;;0.20;0.20;;;27.40;63.90;;;28.20;47.52;94646.19;5054772;28;20569;-43
2023/07/16 03:06:55;;;;;;;0.30;0.30;;;27.50;64.10;;;28.17;47.75;94590.16;5053911;28;20204;-42
2023/07/16 03:09:22;;;;;;;0.30;0.30;;;27.40;64.00;;;28.16;47.54;94658.69;5053894;28;20215;-44
2023/07/16 03:11:50;;;;;;;0.30;0.30;;;27.40;64.20;;;28.15;47.77;94613.97;5054620;28;20275;-42
2023/07/16 03:14:18;;;;;;;0.30;0.30;;;27.40;64.20;;;28.13;48.10;94648.53;5054822;28;20237;-45
2023/07/16 03:16:45;;;;;;;0.30;0.30;;;27.40;64.20;;;28.13;48.38;94645.81;5053867;28;20196;-43
2023/07/16 03:19:12;;;;;;;0.30;0.30;;;27.40;64.30;;;28.08;47.96;94635.97;5053672;28;20258;-42
2023/07/16 03:21:40;;;;;;;0.30;0.30;;;27.40;64.40;;;28.13;48.26;94653.13;5053831;28;20210;-45
2023/07/16 03:24:07;;;;;;;0.30;0.30;;;27.40;64.50;;;28.11;47.98;94667.72;5053592;28;20204;-45
2023/07/16 03:26:35;;;;;;;0.30;0.30;;;27.40;65.40;;;28.12;48.46;94673.88;5037495;28;20191;-43
2023/07/16 03:29:02;;;;;;;0.30;0.30;;;27.40;64.50;;;28.12;48.38;94676.59;5053817;28;20209;-42
2023/07/16 03:31:30;;;;;;;0.30;0.30;;;27.40;64.60;;;28.14;48.51;94684.34;5053504;28;20220;-41
2023/07/16 03:33:57;;;;;;;0.40;0.40;;;27.40;64.50;;;28.11;48.04;94689.28;5071057;28;20196;-41
2023/07/16 03:36:28;;;;;;;0.30;0.30;;;27.40;64.70;;;28.12;48.13;94684.66;5053652;28;20206;-41
2023/07/16 03:38:55;;;;;;;0.30;0.30;;;27.40;64.80;;;28.11;48.68;94702.75;5055389;28;20472;-41
2023/07/16 03:41:22;;;;;;;0.20;0.20;;;27.40;64.80;;;28.13;48.38;94701.66;5053429;28;20633;-41
2023/07/16 03:43:49;;;;;;;0.30;0.30;;;27.40;64.80;;;28.10;48.34;94714.66;5053566;28;20251;-42
2023/07/16 03:46:19;;;;;;;0.20;0.20;;;27.40;64.90;;;28.13;48.67;94715.16;5053541;28;20207;-41
2023/07/16 03:48:46;;;;;;;0.30;0.30;;;27.40;65.00;;;28.12;48.92;94717.03;5054734;28;20207;-41
2023/07/16 03:51:14;;;;;;;0.43;0.43;;;27.40;65.10;;;28.10;48.89;94711.94;5053438;28;20208;-41
2023/07/16 03:53:41;;;;;;;0.20;0.20;;;27.40;65.10;;;28.10;48.78;94714.66;5070456;28;20576;-41
2023/07/16 03:56:08;;;;;;;0.30;0.30;;;27.40;65.10;;;28.08;49.47;94722.25;5053492;28;20317;-40
2023/07/16 03:58:35;;;;;;;0.30;0.30;;;27.40;65.20;;;28.09;49.01;94723.06;5053420;28;20548;-41
2023/07/16 04:01:05;;;;;;;0.38;0.38;;;27.40;65.10;;;28.10;49.03;94720.03;5053349;28;20208;-41
2023/07/16 04:03:32;;;;;;;0.32;0.32;;;27.40;66.10;;;28.10;48.76;94735.44;5053362;28;20204;-41
2023/07/16 04:06:09;;;;;;;0.30;0.30;;;27.40;66.10;;;28.08;49.22;94751.91;5054335;28;20192;-43
2023/07/16 04:08:37;;;;;;;0.20;0.20;;;27.40;65.40;;;28.08;49.18;94765.38;5054331;28;20600;-42
2023/07/16 04:11:05;;;;;;;0.30;0.30;;;27.40;65.20;;;28.07;49.11;94774.56;5054372;28;20221;-41
2023/07/16 04:13:33;;;;;;;0.40;0.40;;;27.40;65.20;;;28.08;48.91;94781.56;5054321;28;20206;-41
2023/07/16 04:16:00;;;;;;;0.30;0.30;;;27.40;65.20;;;28.08;49.24;94784.25;5054893;28;20529;-42
2023/07/16 04:18:28;;;;;;;0.30;0.30;;;27.40;65.30;;;28.09;49.23;94803.94;5074026;28;20235;-41
2023/07/16 04:20:55;;;;;;;0.40;0.40;;;27.40;65.40;;;28.10;48.97;94819.03;5057133;28;20633;-41
2023/07/16 04:23:23;;;;;;;0.20;0.20;;;27.40;65.50;;;28.09;49.18;94842.47;5057796;28;20553;-41
2023/07/16 04:25:55;;;;;;;0.38;0.38;;;27.40;65.40;;;28.10;49.09;94862.16;5040423;28;20197;-41
2023/07/16 04:28:22;;;;;;;0.40;0.40;;;27.40;65.60;;;28.10;49.55;94871.03;5057744;28;20228;-42
2023/07/16 04:30:52;;;;;;;0.30;0.30;;;27.40;65.40;;;28.09;49.16;94872.13;5057640;28;20219;-43
2023/07/16 04:33:20;;;;;;;0.20;0.20;;;27.40;65.50;;;28.10;48.92;94864.88;5057341;28;20659;-42
2023/07/16 04:35:47;;;;;;;0.35;0.35;;;27.40;65.50;;;28.08;49.31;94865.16;5057625;28;20278;-42
2023/07/16 04:38:14;;;;;;;0.30;0.30;;;27.40;65.50;;;28.08;49.23;94873.22;5057540;28;20204;-41
2023/07/16 04:40:43;;;;;;;0.30;0.30;;;27.40;65.50;;;28.08;49.28;94869.75;5057493;28;20286;-41
2023/07/16 04:43:10;;;;;;;0.32;0.32;;;27.40;65.50;;;28.05;49.67;94884.63;5057313;28;20193;-42
2023/07/16 04:45:39;;;;;;;0.30;0.30;;;27.40;65.50;;;28.04;49.48;94893.78;5057410;28;20227;-42
2023/07/16 04:48:07;;;;;;;0.38;0.38;;;27.40;65.50;;;28.05;49.25;94897.31;5057351;28;20292;-42
2023/07/16 04:50:34;;;;;;;0.30;0.30;;;27.40;65.50;;;28.03;49.81;94910.28;5057413;28;20690;-41
2023/07/16 04:53:01;;;;;;;0.20;0.20;;;27.40;65.60;;;28.02;49.52;94914.88;5057285;28;20247;-41
2023/07/16 04:55:28;;;;;;;0.30;0.30;;;27.40;65.60;;;28.03;49.98;94921.06;5056366;28;20188;-42
2023/07/16 04:57:56;;;;;;;0.30;0.30;;;27.40;65.70;;;28.02;49.90;94925.66;5057128;28;20525;-42
2023/07/16 05:00:23;;;;;;;0.30;0.30;;;27.40;65.60;;;28.02;49.62;94930.25;5057344;28;20523;-41
2023/07/16 05:02:51;;;;;;;0.30;0.30;;;27.40;65.60;;;28.03;49.63;94939.94;5056892;28;20189;-44
2023/07/16 05:05:18;;;;;;;0.40;0.40;;;27.40;65.60;;;28.03;49.71;94937.25;5057508;28;20201;-41
2023/07/16 05:07:45;;;;;;;0.30;0.30;;;27.40;65.60;;;28.03;49.57;94948.03;5056949;28;20290;-41
2023/07/16 05:10:12;;;;;;;0.30;0.30;;;27.40;65.60;;;28.04;49.67;94949.59;5056917;28;20539;-42
2023/07/16 05:12:39;;;;;;;0.30;0.30;;;27.40;65.70;;;28.03;49.85;94948.81;5056929;28;20244;-42
2023/07/16 05:15:07;;;;;;;0.22;0.22;;;27.40;65.60;;;28.04;50.02;94952.28;5057035;28;20284;-42
2023/07/16 05:17:34;;;;;;;0.30;0.30;;;27.40;65.60;;;28.04;49.79;94953.13;5056839;28;20246;-42
2023/07/16 05:20:04;;;;;;;0.30;0.30;;;27.40;65.70;;;28.04;49.95;94955.81;5055667;28;20242;-42
2023/07/16 05:22:31;;;;;;;0.30;0.30;;;27.40;65.60;;;28.02;49.65;94949.91;5056552;28;20189;-41
2023/07/16 05:24:58;;;;;;;0.30;0.30;;;27.40;65.60;;;28.06;50.01;94958.22;5055819;28;20208;-41
2023/07/16 05:27:25;;;;;;;0.30;0.30;;;27.40;65.50;;;28.07;49.75;94955.22;5056610;28;20195;-41
2023/07/16 05:29:53;;;;;;;0.30;0.30;;;27.40;65.50;;;28.07;49.24;94960.63;5056561;28;20292;-41
2023/07/16 05:32:21;;;;;;;0.30;0.30;;;27.40;65.30;;;28.08;49.67;94954.13;5055387;28;20284;-41
2023/07/16 05:34:49;;;;;;;0.20;0.20;;;27.40;65.30;;;28.08;49.33;94954.13;5056441;28;20224;-41
2023/07/16 05:37:16;;;;;;;0.30;0.30;;;27.50;65.50;;;28.09;49.44;94947.63;5056421;28;20184;-41
2023/07/16 05:39:43;;;;;;;0.30;0.30;;;27.50;65.30;;;28.10;49.69;94954.63;5056633;28;20525;-41
2023/07/16 05:42:10;;;;;;;0.32;0.32;;;27.50;65.40;;;28.11;49.04;94947.31;5056424;28;20205;-41
2023/07/16 05:44:37;;;;;;;0.40;0.40;;;27.50;65.30;;;28.13;49.69;94955.91;5056644;28;20505;-41
2023/07/16 05:47:05;;;;;;;0.30;0.30;;;27.50;66.20;;;28.15;49.14;94961.00;5055340;28;20649;-41
2023/07/16 05:49:32;;;;;;;0.30;0.30;;;27.50;65.20;;;28.16;49.49;94968.81;5056166;28;20231;-40
2023/07/16 05:52:00;;;;;;;0.30;0.30;;;27.50;65.10;;;28.18;49.36;94976.59;5054991;28;20229;-41
2023/07/16 05:54:27;;;;;;;0.35;0.35;;;27.50;65.10;;;28.19;48.88;94978.97;5056081;28;20199;-41
2023/07/16 05:56:54;;;;;;;0.30;0.30;;;27.50;65.10;;;28.20;48.97;94990.56;5055174;28;20221;-41
2023/07/16 05:59:21;;;;;;;0.30;0.30;;;27.50;65.00;;;28.21;49.39;94986.75;5055980;28;20182;-41
2023/07/16 06:01:49;;;;;;;0.40;0.40;;;27.50;65.10;;;28.22;48.82;94993.75;5056021;28;20189;-41
2023/07/16 06:04:16;;;;;;;0.30;0.30;;;27.60;65.00;;;28.22;49.09;94999.97;5055888;28;20295;-41
2023/07/16 06:06:43;;;;;;;0.25;0.25;;;27.60;65.10;;;28.24;49.05;94999.66;5056198;28;20218;-42
2023/07/16 06:09:10;;;;;;;0.30;0.30;;;27.60;65.10;;;28.24;49.13;94999.66;5071484;28;20284;-42
2023/07/16 06:11:37;;;;;;;0.20;0.20;;;27.60;65.00;;;28.23;49.26;94998.84;5055830;28;20211;-41
2023/07/16 06:14:04;;;;;;;0.30;0.30;;;27.60;65.10;;;28.24;48.82;95008.53;5054506;28;20519;-41
2023/07/16 06:16:31;;;;;;;0.30;0.30;;;27.60;65.10;;;28.24;49.14;95007.75;5055425;28;20639;-44
2023/07/16 06:18:59;;;;;;;0.22;0.22;;;27.60;65.00;;;28.24;49.19;95007.75;5053902;28;20785;-44
2023/07/16 06:21:26;;;;;;;0.30;0.30;;;27.60;64.90;;;28.24;48.86;95013.91;5054364;28;20197;-40
2023/07/16 06:23:53;;;;;;;0.30;0.30;;;27.60;65.00;;;28.22;49.36;95008.06;5054387;28;20237;-44
2023/07/16 06:26:20;;;;;;;0.30;0.30;;;27.60;64.90;;;28.22;49.25;95018.03;5055531;28;20251;-45
2023/07/16 06:28:49;;;;;;;0.30;0.30;;;27.60;64.80;;;28.22;48.68;95028.81;5055822;28;20600;-43
2023/07/16 06:31:17;;;;;;;0.20;0.20;;;27.60;64.80;;;28.20;49.09;95031.81;5054245;28;20593;-43
2023/07/16 06:33:49;;;;;;;0.25;0.25;;;27.60;64.80;;;28.19;48.83;95030.22;5058227;28;20247;-41
2023/07/16 06:36:16;;;;;;;0.30;0.30;;;27.60;64.80;;;28.19;48.48;95024.03;5074644;28;20615;-44
2023/07/16 06:38:44;;;;;;;0.30;0.30;;;27.60;64.70;;;28.19;48.96;95018.66;5075487;28;20651;-55
2023/07/16 06:41:11;;;;;;;0.35;0.35;;;27.60;64.80;;;28.20;48.75;95020.25;5057235;28;20200;-42
2023/07/16 06:43:38;;;;;;;0.38;0.38;;;27.50;64.80;;;28.19;49.01;95014.03;5055252;28;20207;-43
2023/07/16 06:46:05;;;;;;;0.30;0.30;;;27.60;65.20;;;28.20;49.14;95028.34;5069409;28;20217;-41
2023/07/16 06:48:34;;;;;;;0.22;0.22;;;27.50;64.80;;;28.19;48.54;95027.53;5073803;28;20223;-42
2023/07/16 06:51:01;;;;;;;0.52;0.52;;;27.50;64.80;;;28.20;48.99;95031.81;5074212;28;20211;-45
2023/07/16 06:53:28;;;;;;;0.60;0.60;;;27.50;64.80;;;28.19;48.84;95024.03;5075596;28;20238;-45
2023/07/16 06:55:56;;;;;;;0.50;0.50;;;27.50;64.70;;;28.19;48.67;95024.03;5075253;28;20191;-51
2023/07/16 06:58:33;;;;;;;0.50;0.50;;;27.50;64.90;;;28.19;49.14;95030.22;5074331;28;20287;-41
2023/07/16 07:01:00;;;;;;;0.50;0.50;;;27.50;64.90;;;28.19;48.91;95026.72;5074519;28;20198;-45
2023/07/16 07:03:28;;;;;;;0.40;0.40;;;27.50;65.00;;;28.19;48.60;95029.44;5049571;28;20260;-41
2023/07/16 07:05:56;;;;;;;0.30;0.30;;;27.50;64.90;;;28.19;48.67;95032.91;5058883;28;20232;-45
2023/07/16 07:08:23;;;;;;;0.20;0.20;;;27.50;64.80;;;28.18;48.61;95036.72;5073985;28;20191;-45
2023/07/16 07:10:50;;;;;;;0.30;0.30;;;27.50;64.90;;;28.18;48.60;95041.31;5070841;28;20254;-45
2023/07/16 07:13:21;;;;;;;0.25;0.25;;;27.50;64.80;;;28.15;48.44;95040.03;5064907;28;20240;-43
2023/07/16 07:15:54;;;;;;;0.20;0.20;;;27.50;64.90;;;28.14;48.88;95040.31;5056084;28;20243;-41
2023/07/16 07:18:22;;;;;;;0.30;0.30;;;27.50;64.80;;;28.13;48.49;95052.22;5048657;28;20204;-42
2023/07/16 07:20:51;;;;;;;0.30;0.30;;;27.50;64.90;;;28.12;48.86;95046.00;5074676;28;20197;-44
2023/07/16 07:23:18;;;;;;;0.20;0.20;;;27.50;64.90;;;28.10;48.57;95049.00;5074004;28;20704;-41
2023/07/16 07:25:52;;;;;;;0.30;0.30;;;27.40;64.90;;;28.09;48.69;95039.31;5073375;28;20207;-43
2023/07/16 07:28:20;;;;;;;0.30;0.30;;;27.40;65.10;;;28.09;48.71;95041.22;5074645;28;20185;-43
2023/07/16 07:30:47;;;;;;;0.30;0.30;;;27.40;65.00;;;28.07;48.80;95038.81;5074933;28;20289;-43
2023/07/16 07:33:14;;;;;;;0.20;0.20;;;27.40;65.10;;;28.06;48.68;95044.50;5055926;28;20304;-45
2023/07/16 07:35:42;;;;;;;0.20;0.20;;;27.40;65.00;;;28.07;49.03;95046.09;5054542;28;20195;-43
2023/07/16 07:38:09;;;;;;;0.30;0.30;;;27.40;65.10;;;28.07;48.71;95046.91;5053719;28;20198;-45
2023/07/16 07:40:36;;;;;;;0.30;0.30;;;27.40;65.10;;;28.07;48.81;95054.97;5054720;28;20215;-45
2023/07/16 07:43:03;;;;;;;0.30;0.30;;;27.40;65.10;;;28.06;49.42;95053.41;5053729;28;20741;-43
2023/07/16 07:45:30;;;;;;;0.20;0.20;;;27.40;65.20;;;28.06;49.03;95056.09;5054874;28;20644;-42
2023/07/16 07:47:57;;;;;;;0.25;0.25;;;27.40;65.20;;;28.06;49.45;95048.03;5070938;28;20294;-43
2023/07/16 07:50:25;;;;;;;0.30;0.30;;;27.40;65.30;;;28.05;48.98;95057.19;5055080;28;20196;-45
2023/07/16 07:52:53;;;;;;;0.30;0.30;;;27.40;65.30;;;28.04;49.04;95054.75;5057893;28;20206;-43
2023/07/16 07:55:20;;;;;;;0.20;0.20;;;27.40;65.30;;;28.04;48.98;95060.97;5066035;28;20243;-45
2023/07/16 07:57:47;;;;;;;0.30;0.30;;;27.30;65.30;;;28.01;49.21;95064.25;5078483;28;20181;-44
2023/07/16 08:00:15;;;;;;;0.30;0.30;;;27.40;65.30;;;27.98;49.46;95067.56;5078270;28;20198;-43
2023/07/16 08:02:42;;;;;;;0.30;0.30;;;27.30;66.20;;;27.98;49.57;95066.75;5074104;28;20202;-43
2023/07/16 08:05:09;;;;;;;0.30;0.30;;;27.30;65.30;;;27.96;48.99;95067.88;5058302;28;20201;-41
2023/07/16 08:07:37;;;;;;;0.22;0.22;;;27.30;65.30;;;27.95;49.07;95070.84;5057438;28;20288;-43
2023/07/16 08:10:04;;;;;;;0.30;0.30;;;27.30;65.30;;;27.92;49.13;95066.84;5074054;28;20222;-43
2023/07/16 08:12:32;;;;;;;0.20;0.20;;;27.20;65.30;;;27.92;49.22;95066.84;5058120;28;20233;-44
2023/07/16 08:14:59;;;;;;;0.30;0.30;;;27.20;65.40;;;27.90;49.37;95062.84;5066948;28;20213;-43
2023/07/16 08:17:26;;;;;;;0.30;0.30;;;27.20;65.50;;;27.89;49.35;95058.56;5078035;28;20188;-43
2023/07/16 08:19:54;;;;;;;0.30;0.30;;;27.20;65.40;;;27.88;49.21;95068.53;5064229;28;20237;-40
2023/07/16 08:22:23;;;;;;;0.35;0.35;;;27.20;65.50;;;27.88;49.63;95065.03;5074675;28;20197;-44
2023/07/16 08:24:51;;;;;;;0.22;0.22;;;27.20;65.50;;;27.88;49.32;95068.53;5073978;28;20197;-45
2023/07/16 08:27:19;;;;;;;0.30;0.30;;;27.20;65.60;;;27.88;49.63;95063.16;5057828;28;20193;-45
2023/07/16 08:29:47;;;;;;;0.30;0.30;;;27.20;65.70;;;27.89;49.99;95072.03;5057759;28;20195;-42
2023/07/16 08:32:14;;;;;;;0.30;0.30;;;27.20;65.70;;;27.87;49.56;95069.63;5040279;28;20594;-43
2023/07/16 08:34:41;;;;;;;0.30;0.30;;;27.20;65.70;;;27.88;49.58;95065.84;5057683;28;20283;-43
2023/07/16 08:37:08;;;;;;;0.30;0.30;;;27.20;65.80;;;27.88;49.75;95063.16;5067561;28;20201;-44
2023/07/16 08:39:35;;;;;;;0.20;0.20;;;27.20;65.70;;;27.86;49.33;95070.72;5093426;28;20242;-44
2023/07/16 08:42:04;;;;;;;0.30;0.30;;;27.20;65.70;;;27.85;49.87;95066.44;5077463;28;20204;-44
2023/07/16 08:44:31;;;;;;;0.30;0.30;;;27.20;65.70;;;27.87;49.56;95074.22;5070965;28;20960;-43
2023/07/16 08:46:59;;;;;;;0.20;0.20;;;27.20;65.70;;;27.88;50.07;95067.72;5076209;28;20633;-43
2023/07/16 08:49:30;;;;;;;0.20;0.20;;;27.20;65.90;;;27.88;50.14;95065.84;5076732;28;20258;-43
2023/07/16 08:51:57;;;;;;;0.20;0.20;;;27.20;65.90;;;27.90;49.64;95063.63;5077364;28;20177;-43
2023/07/16 08:54:25;;;;;;;0.30;0.30;;;27.20;65.90;;;27.93;49.59;95062.25;5077311;28;20239;-43
2023/07/16 08:56:53;;;;;;;0.25;0.25;;;27.20;65.90;;;27.94;49.97;95077.31;5077462;28;20203;-43
2023/07/16 08:59:21;;;;;;;0.30;0.30;;;27.20;66.00;;;27.96;49.85;95075.13;5060110;28;20207;-43
2023/07/16 09:01:48;;;;;;;0.20;0.20;;;27.20;66.00;;;27.97;49.73;95079.44;5077078;28;20624;-44
2023/07/16 09:04:16;;;;;;;0.30;0.30;;;27.20;66.00;;;28.00;50.35;95083.44;5076138;28;20196;-43
2023/07/16 09:06:43;;;;;;;0.30;0.30;;;27.30;66.10;;;28.01;50.31;95072.34;5076520;28;20194;-43
2023/07/16 09:09:24;;;;;;;0.30;0.30;;;27.30;66.10;;;28.01;50.38;95077.72;5076146;28;20645;-43
2023/07/16 09:11:51;;;;;;;0.30;0.30;;;27.30;66.20;;;28.02;50.08;95092.81;5076092;28;20247;-43
2023/07/16 09:14:20;;;;;;;0.30;0.30;;;27.30;66.00;;;28.05;49.91;95077.97;5076660;28;20539;-43
2023/07/16 09:16:53;;;;;;;0.25;0.25;;;27.30;66.10;;;28.05;49.82;95081.47;5077124;28;20199;-43
2023/07/16 09:19:22;;;;;;;0.30;0.30;;;27.40;66.20;;;28.08;50.11;95091.63;5076784;28;20232;-43
2023/07/16 09:21:50;;;;;;;0.30;0.30;;;27.40;66.00;;;28.09;50.16;95078.97;5076857;28;20220;-43
2023/07/16 09:24:19;;;;;;;0.30;0.30;;;27.40;66.00;;;28.11;50.08;95090.25;5076838;28;20202;-43
2023/07/16 09:26:55;;;;;;;0.30;0.30;;;27.40;65.90;;;28.13;49.59;95085.34;5092579;28;20197;-43
2023/07/16 09:29:25;;;;;;;0.30;0.30;;;27.40;65.80;;;28.15;49.49;95093.97;5076518;28;20185;-43
2023/07/16 09:32:02;;;;;;;0.30;0.30;;;27.40;65.70;;;28.16;49.52;95089.34;5063213;28;20231;-43
2023/07/16 09:34:32;;;;;;;0.30;0.30;;;27.50;65.80;;;28.18;49.99;95089.84;5071544;28;20218;-43
2023/07/16 09:37:01;;;;;;;0.30;0.30;;;27.50;65.70;;;28.18;49.68;95082.56;5058665;28;20518;-42
2023/07/16 09:39:28;;;;;;;0.40;0.40;;;27.50;65.70;;;28.19;49.45;95081.47;5056508;28;20217;-43
2023/07/16 09:41:57;;;;;;;0.30;0.30;;;27.50;65.70;;;28.20;49.54;95079.56;5055899;28;20236;-43
2023/07/16 09:44:24;;;;;;;0.30;0.30;;;27.50;65.60;;;28.22;49.44;95085.44;5056509;28;20204;-44
2023/07/16 09:46:52;;;;;;;0.30;0.30;;;27.50;65.70;;;28.24;49.83;95080.56;5076290;28;20201;-45
2023/07/16 09:49:19;;;;;;;0.30;0.30;;;27.50;65.60;;;28.24;49.80;95078.66;5075378;28;20231;-45
2023/07/16 09:51:48;;;;;;;0.30;0.30;;;27.50;65.70;;;28.25;49.34;95077.56;5058761;28;20200;-41
2023/07/16 09:54:16;;;;;;;0.30;0.30;;;27.60;66.60;;;28.26;49.86;95075.69;5075032;28;20552;-43
2023/07/16 09:56:51;;;;;;;0.30;0.30;;;27.60;65.60;;;28.27;49.30;95074.56;5075963;28;20199;-42
2023/07/16 09:59:23;;;;;;;0.20;0.20;;;27.60;65.50;;;28.30;49.59;95083.97;5076344;28;20187;-45
2023/07/16 10:01:51;;;;;;;0.30;0.30;;;27.60;65.50;;;28.30;49.28;95090.16;5075737;28;20178;-43
2023/07/16 10:04:20;;;;;;;0.30;0.30;;;27.60;65.50;;;28.33;49.21;95091.44;5075371;28;20193;-45
2023/07/16 10:06:58;;;;;;;0.30;0.30;;;27.60;65.40;;;28.33;49.20;95086.88;5075061;28;20232;-41
2023/07/16 10:09:50;;;;;;;0.28;0.28;;;27.60;65.40;;;28.33;49.53;95078.78;5076196;28;20209;-43
2023/07/16 10:12:20;;;;;;;0.30;0.30;;;27.70;65.40;;;28.36;49.63;95082.75;5091788;28;20199;-44
2023/07/16 10:14:49;;;;;;;0.30;0.30;;;27.70;65.30;;;28.37;49.68;95074.38;5075370;28;20236;-41
2023/07/16 10:17:21;;;;;;;0.20;0.20;;;27.60;65.30;;;28.39;49.01;95069.47;5076457;28;20186;-41
2023/07/16 10:20:31;;;;;;;0.30;0.30;;;27.70;65.30;;;28.39;49.61;95074.88;5074721;28;20244;-43
2023/07/16 10:23:12;;;;;;;0.22;0.22;;;27.70;65.30;;;28.42;48.95;95079.66;5073173;28;20205;-43
2023/07/16 10:26:05;;;;;;;0.38;0.38;;;27.70;65.10;;;28.44;48.90;95068.53;5092246;28;20185;-43
2023/07/16 10:28:34;;;;;;;0.25;0.25;;;27.80;65.10;;;28.46;49.54;95066.34;5075553;28;20179;-43